createdAt,value
2018-07-24T00:00:46.570Z,371.10
2018-07-24T00:01:46.678Z,344.00
2018-07-24T00:02:46.681Z,346.30
2018-07-24T00:03:46.712Z,331.40
2018-07-24T00:04:46.763Z,344.80
2018-07-24T00:05:46.866Z,322.80
2018-07-24T00:06:47.006Z,336.40
2018-07-24T00:09:46.994Z,350.90
2018-07-24T00:10:47.031Z,357.00
2018-07-24T00:11:47.038Z,352.80
2018-07-24T00:12:47.090Z,336.90
2018-07-24T00:13:47.148Z,346.10
2018-07-24T00:14:47.280Z,375.00
2018-07-24T00:15:47.320Z,350.70
2018-07-24T00:16:47.267Z,365.30
2018-07-24T00:17:47.518Z,383.70
2018-07-24T00:18:47.358Z,381.20
2018-07-24T00:19:47.413Z,391.80
2018-07-24T00:20:47.538Z,397.50
2018-07-24T00:21:47.494Z,394.00
2018-07-24T00:22:47.565Z,375.10
2018-07-24T00:23:47.607Z,386.10
2018-07-24T00:24:47.623Z,375.10
2018-07-24T00:25:47.763Z,380.40
2018-07-24T00:26:47.932Z,391.70
2018-07-24T00:27:47.761Z,376.00
2018-07-24T00:28:47.813Z,381.60
2018-07-24T00:29:47.867Z,383.00
2018-07-24T00:30:48.002Z,377.60
2018-07-24T00:31:49.556Z,382.20
2018-07-24T00:32:48.002Z,395.30
2018-07-24T00:33:48.037Z,383.10
2018-07-24T00:34:48.087Z,388.90
2018-07-24T00:35:48.323Z,392.50
2018-07-24T00:36:48.175Z,392.20
2018-07-24T00:37:49.869Z,391.90
2018-07-24T00:39:48.319Z,389.00
2018-07-24T00:40:48.359Z,380.90
2018-07-24T00:41:48.392Z,396.20
2018-07-24T00:42:48.465Z,409.40
2018-07-24T00:43:48.502Z,409.20
2018-07-24T00:44:50.191Z,418.80
2018-07-24T00:45:48.800Z,409.30
2018-07-24T00:46:48.816Z,403.70
2018-07-24T00:47:48.671Z,417.40
2018-07-24T00:48:48.933Z,417.30
2018-07-24T00:49:48.756Z,409.20
2018-07-24T00:50:48.908Z,406.20
2018-07-24T00:51:48.849Z,406.30
2018-07-24T00:52:48.886Z,396.30
2018-07-24T00:53:48.943Z,386.10
2018-07-24T00:54:48.996Z,374.00
2018-07-24T00:55:49.126Z,357.60
2018-07-24T00:56:49.156Z,357.00
2018-07-24T00:57:49.115Z,376.80
2018-07-24T00:58:49.173Z,369.90
2018-07-24T00:59:49.227Z,364.90
2018-07-24T01:00:49.243Z,380.00
2018-07-24T01:01:49.386Z,393.40
2018-07-24T01:02:49.448Z,395.10
2018-07-24T01:03:49.400Z,380.40
2018-07-24T01:04:49.445Z,382.00
2018-07-24T01:05:49.475Z,387.00
2018-07-24T01:06:49.531Z,385.70
2018-07-24T01:07:49.654Z,392.80
2018-07-24T01:08:49.621Z,395.70
2018-07-24T01:09:49.671Z,394.30
2018-07-24T01:10:49.711Z,410.60
2018-07-24T01:11:49.746Z,402.10
2018-07-24T01:12:50.087Z,388.00
2018-07-24T01:13:49.847Z,377.70
2018-07-24T01:14:50.081Z,392.30
2018-07-24T01:15:49.926Z,409.30
2018-07-24T01:16:49.956Z,414.60
2018-07-24T01:17:50.130Z,414.30
2018-07-24T01:18:50.070Z,381.30
2018-07-24T01:19:50.316Z,410.20
2018-07-24T01:20:50.147Z,396.50
2018-07-24T01:21:50.383Z,407.20
2018-07-24T01:23:50.305Z,395.40
2018-07-24T01:24:50.319Z,411.90
2018-07-24T01:25:50.364Z,451.00
2018-07-24T01:26:50.416Z,432.10
2018-07-24T01:27:50.459Z,410.40
2018-07-24T01:28:50.618Z,433.90
2018-07-24T01:29:50.751Z,421.90
2018-07-24T01:30:50.790Z,458.70
2018-07-24T01:31:50.652Z,431.20
2018-07-24T01:32:50.677Z,464.30
2018-07-24T01:33:50.828Z,495.40
2018-07-24T01:34:50.780Z,455.90
2018-07-24T01:35:50.812Z,480.40
2018-07-24T01:36:50.858Z,495.50
2018-07-24T01:37:50.914Z,491.50
2018-07-24T01:38:51.045Z,485.60
2018-07-24T01:39:51.304Z,491.30
2018-07-24T01:40:51.238Z,487.40
2018-07-24T01:41:51.089Z,495.40
2018-07-24T01:42:51.127Z,493.40
2018-07-24T01:43:51.365Z,496.60
2018-07-24T01:44:51.315Z,472.60
2018-07-24T01:45:51.392Z,488.40
2018-07-24T01:46:51.301Z,451.00
2018-07-24T01:47:51.345Z,493.00
2018-07-24T01:48:51.387Z,489.00
2018-07-24T01:49:51.420Z,477.40
2018-07-24T01:50:51.579Z,489.20
2018-07-24T01:51:51.578Z,479.20
2018-07-24T01:52:51.617Z,466.30
2018-07-24T01:53:51.631Z,463.60
2018-07-24T01:54:51.686Z,538.10
2018-07-24T01:55:51.749Z,485.60
2018-07-24T01:56:51.751Z,499.30
2018-07-24T01:57:51.889Z,449.00
2018-07-24T01:58:51.863Z,450.20
2018-07-24T01:59:51.933Z,429.50
2018-07-24T02:00:52.160Z,358.60
2018-07-24T02:01:52.029Z,339.80
2018-07-24T02:02:52.028Z,334.60
2018-07-24T02:03:52.111Z,318.30
2018-07-24T02:04:52.123Z,289.00
2018-07-24T02:05:52.189Z,337.40
2018-07-24T02:06:52.204Z,311.90
2018-07-24T02:07:52.464Z,319.20
2018-07-24T02:08:52.324Z,330.00
2018-07-24T02:09:52.364Z,305.40
2018-07-24T02:10:52.402Z,277.70
2018-07-24T02:11:52.448Z,280.30
2018-07-24T02:12:52.858Z,272.00
2018-07-24T02:13:52.563Z,276.00
2018-07-24T02:14:52.593Z,272.30
2018-07-24T02:15:52.665Z,272.50
2018-07-24T02:16:52.659Z,261.80
2018-07-24T02:17:52.685Z,276.30
2018-07-24T02:18:54.403Z,251.70
2018-07-24T02:19:52.803Z,270.50
2018-07-24T02:20:52.899Z,250.70
2018-07-24T02:21:52.879Z,250.70
2018-07-24T02:22:52.909Z,258.30
2018-07-24T02:23:52.963Z,262.80
2018-07-24T02:24:53.015Z,257.70
2018-07-24T02:25:53.066Z,258.40
2018-07-24T02:26:53.127Z,291.70
2018-07-24T02:27:53.157Z,288.30
2018-07-24T02:28:53.182Z,265.90
2018-07-24T02:29:53.502Z,300.30
2018-07-24T02:30:53.344Z,286.40
2018-07-24T02:31:53.393Z,286.80
2018-07-24T02:32:53.377Z,279.10
2018-07-24T02:33:53.408Z,294.00
2018-07-24T02:34:53.474Z,300.00
2018-07-24T02:35:53.680Z,281.10
2018-07-24T02:36:53.521Z,294.50
2018-07-24T02:37:53.585Z,297.40
2018-07-24T02:38:53.621Z,285.50
2018-07-24T02:39:53.692Z,273.30
2018-07-24T02:40:53.719Z,297.90
2018-07-24T02:41:53.905Z,296.10
2018-07-24T02:42:53.819Z,293.70
2018-07-24T02:43:53.842Z,300.20
2018-07-24T02:44:53.924Z,288.20
2018-07-24T02:45:53.910Z,292.30
2018-07-24T02:46:53.979Z,297.40
2018-07-24T02:47:54.043Z,309.30
2018-07-24T02:48:54.299Z,297.50
2018-07-24T02:49:54.131Z,331.30
2018-07-24T02:50:54.151Z,337.90
2018-07-24T02:51:54.222Z,315.70
2018-07-24T02:52:54.241Z,318.20
2018-07-24T02:53:54.311Z,318.70
2018-07-24T02:54:54.309Z,316.90
2018-07-24T02:55:54.384Z,323.90
2018-07-24T02:56:54.414Z,337.30
2018-07-24T02:57:54.447Z,294.70
2018-07-24T02:58:54.499Z,328.90
2018-07-24T02:59:54.692Z,336.90
2018-07-24T03:00:54.597Z,330.70
2018-07-24T03:01:54.647Z,320.10
2018-07-24T03:02:54.690Z,295.30
2018-07-24T03:03:54.699Z,319.00
2018-07-24T03:04:54.774Z,317.10
2018-07-24T03:05:55.020Z,316.20
2018-07-24T03:06:54.857Z,320.80
2018-07-24T03:07:54.923Z,340.20
2018-07-24T03:08:54.924Z,309.50
2018-07-24T03:09:54.991Z,303.60
2018-07-24T03:10:55.017Z,289.80
2018-07-24T03:11:55.247Z,312.90
2018-07-24T03:12:55.107Z,316.20
2018-07-24T03:13:55.162Z,320.40
2018-07-24T03:14:55.246Z,315.50
2018-07-24T03:15:55.248Z,298.00
2018-07-24T03:16:55.301Z,285.00
2018-07-24T03:17:55.528Z,285.10
2018-07-24T03:18:55.364Z,288.40
2018-07-24T03:19:55.420Z,276.30
2018-07-24T03:20:55.459Z,278.10
2018-07-24T03:21:55.492Z,294.90
2018-07-24T03:22:55.733Z,306.00
2018-07-24T03:23:55.599Z,301.00
2018-07-24T03:24:55.623Z,302.30
2018-07-24T03:25:55.714Z,270.90
2018-07-24T03:26:55.747Z,279.10
2018-07-24T03:27:55.792Z,270.80
2018-07-24T03:28:56.023Z,296.20
2018-07-24T03:29:55.866Z,269.30
2018-07-24T03:30:55.891Z,261.30
2018-07-24T03:31:55.967Z,303.90
2018-07-24T03:32:55.989Z,293.20
2018-07-24T03:33:56.026Z,310.10
2018-07-24T03:34:56.095Z,306.00
2018-07-24T03:35:56.135Z,310.80
2018-07-24T03:36:56.161Z,298.20
2018-07-24T03:37:56.250Z,312.60
2018-07-24T03:38:56.492Z,315.60
2018-07-24T03:39:56.310Z,317.70
2018-07-24T03:40:56.346Z,323.40
2018-07-24T03:41:56.363Z,279.70
2018-07-24T03:42:56.428Z,271.10
2018-07-24T03:43:56.472Z,250.20
2018-07-24T03:44:56.773Z,293.30
2018-07-24T03:45:56.564Z,306.60
2018-07-24T03:46:56.599Z,305.90
2018-07-24T03:47:56.657Z,289.10
2018-07-24T03:48:56.715Z,293.80
2018-07-24T03:49:56.726Z,254.50
2018-07-24T03:50:56.810Z,275.00
2018-07-24T03:51:56.805Z,295.30
2018-07-24T03:52:56.843Z,303.70
2018-07-24T03:53:56.924Z,313.80
2018-07-24T03:54:57.142Z,322.60
2018-07-24T03:55:56.985Z,320.40
2018-07-24T03:56:57.042Z,282.30
2018-07-24T03:57:57.115Z,266.70
2018-07-24T03:58:57.105Z,247.90
2018-07-24T03:59:57.216Z,279.80
2018-07-24T04:00:57.356Z,273.30
2018-07-24T04:01:57.261Z,256.70
2018-07-24T04:02:57.284Z,277.30
2018-07-24T04:03:57.340Z,253.00
2018-07-24T04:04:57.413Z,267.60
2018-07-24T04:05:57.645Z,287.50
2018-07-24T04:06:57.469Z,285.30
2018-07-24T04:07:57.531Z,289.10
2018-07-24T04:08:57.578Z,297.50
2018-07-24T04:09:57.603Z,318.60
2018-07-24T04:10:57.656Z,334.10
2018-07-24T04:11:57.846Z,346.40
2018-07-24T04:12:57.727Z,342.30
2018-07-24T04:13:57.773Z,294.10
2018-07-24T04:14:57.826Z,254.60
2018-07-24T04:15:57.843Z,301.70
2018-07-24T04:16:57.963Z,336.40
2018-07-24T04:17:58.154Z,355.50
2018-07-24T04:18:58.005Z,352.60
2018-07-24T04:19:58.043Z,364.00
2018-07-24T04:20:58.065Z,344.50
2018-07-24T04:21:58.132Z,338.80
2018-07-24T04:22:58.152Z,308.50
2018-07-24T04:23:58.365Z,294.20
2018-07-24T04:24:58.255Z,282.90
2018-07-24T04:25:58.297Z,285.80
2018-07-24T04:26:58.323Z,310.60
2018-07-24T04:27:58.373Z,335.10
2018-07-24T04:28:58.432Z,324.70
2018-07-24T04:29:58.765Z,328.20
2018-07-24T04:30:58.510Z,338.10
2018-07-24T04:31:58.563Z,337.30
2018-07-24T04:32:58.608Z,338.10
2018-07-24T04:33:58.632Z,338.10
2018-07-24T04:34:58.673Z,326.80
2018-07-24T04:35:58.741Z,288.90
2018-07-24T04:36:58.773Z,317.90
2018-07-24T04:37:58.817Z,328.00
2018-07-24T04:38:58.852Z,344.60
2018-07-24T04:39:59.213Z,337.00
2018-07-24T04:40:58.971Z,337.50
2018-07-24T04:41:58.996Z,303.50
2018-07-24T04:42:59.039Z,333.10
2018-07-24T04:43:59.057Z,334.10
2018-07-24T04:44:59.297Z,314.30
2018-07-24T04:45:59.157Z,293.00
2018-07-24T04:46:59.229Z,286.40
2018-07-24T04:47:59.299Z,291.60
2018-07-24T04:48:59.294Z,270.90
2018-07-24T04:49:59.339Z,271.30
2018-07-24T04:50:59.572Z,279.90
2018-07-24T04:51:59.427Z,272.00
2018-07-24T04:52:59.452Z,293.30
2018-07-24T04:53:59.526Z,299.10
2018-07-24T04:54:59.568Z,323.50
2018-07-24T04:55:59.592Z,313.60
2018-07-24T04:56:59.849Z,323.00
2018-07-24T04:57:59.681Z,290.40
2018-07-24T04:58:59.782Z,312.90
2018-07-24T04:59:59.768Z,325.00
2018-07-24T05:00:59.860Z,308.00
2018-07-24T05:01:59.849Z,312.90
2018-07-24T05:03:00.065Z,332.90
2018-07-24T05:03:59.916Z,339.30
2018-07-24T05:04:59.995Z,327.80
2018-07-24T05:06:00.009Z,323.50
2018-07-24T05:07:00.056Z,331.20
2018-07-24T05:08:00.114Z,337.90
2018-07-24T05:09:00.349Z,338.40
2018-07-24T05:10:00.208Z,370.80
2018-07-24T05:11:00.241Z,363.30
2018-07-24T05:12:00.286Z,325.50
2018-07-24T05:13:00.352Z,323.20
2018-07-24T05:14:00.383Z,329.10
2018-07-24T05:15:00.539Z,331.80
2018-07-24T05:16:00.451Z,319.60
2018-07-24T05:17:00.493Z,331.40
2018-07-24T05:18:00.537Z,330.10
2018-07-24T05:19:00.573Z,362.40
2018-07-24T05:20:00.605Z,333.30
2018-07-24T05:21:00.891Z,338.70
2018-07-24T05:22:00.701Z,383.10
2018-07-24T05:23:00.747Z,355.80
2018-07-24T05:24:00.807Z,334.90
2018-07-24T05:25:00.844Z,336.90
2018-07-24T05:26:00.915Z,372.10
2018-07-24T05:27:00.925Z,374.00
2018-07-24T05:28:01.173Z,344.10
2018-07-24T05:29:01.004Z,331.10
2018-07-24T05:30:01.081Z,332.40
2018-07-24T05:31:01.068Z,362.60
2018-07-24T05:32:01.139Z,329.50
2018-07-24T05:33:01.166Z,326.30
2018-07-24T05:34:01.369Z,332.90
2018-07-24T05:35:01.279Z,357.90
2018-07-24T05:36:01.325Z,386.40
2018-07-24T05:37:01.342Z,364.20
2018-07-24T05:38:01.400Z,353.10
2018-07-24T05:39:01.655Z,383.20
2018-07-24T05:40:01.487Z,374.90
2018-07-24T05:41:01.542Z,355.40
2018-07-24T05:42:01.556Z,358.50
2018-07-24T05:43:01.604Z,359.60
2018-07-24T05:44:01.654Z,354.60
2018-07-24T05:45:01.864Z,383.40
2018-07-24T05:46:01.732Z,348.20
2018-07-24T05:47:01.789Z,333.30
2018-07-24T05:48:01.866Z,329.00
2018-07-24T05:49:01.923Z,343.60
2018-07-24T05:50:01.913Z,330.30
2018-07-24T05:51:01.963Z,340.70
2018-07-24T05:52:01.990Z,333.80
2018-07-24T05:53:02.030Z,339.20
2018-07-24T05:54:02.068Z,340.40
2018-07-24T05:55:02.287Z,345.30
2018-07-24T05:56:02.159Z,406.60
2018-07-24T05:57:02.197Z,392.50
2018-07-24T05:58:02.274Z,387.90
2018-07-24T05:59:02.295Z,380.10
2018-07-24T06:00:02.318Z,351.10
2018-07-24T06:01:02.555Z,356.00
2018-07-24T06:02:02.499Z,364.10
2018-07-24T06:03:02.489Z,392.00
2018-07-24T06:04:02.512Z,340.90
2018-07-24T06:05:02.546Z,369.40
2018-07-24T06:06:02.601Z,369.00
2018-07-24T06:07:02.790Z,395.00
2018-07-24T06:08:02.683Z,363.30
2018-07-24T06:09:02.722Z,391.20
2018-07-24T06:10:02.761Z,403.60
2018-07-24T06:11:02.810Z,399.60
2018-07-24T06:12:02.867Z,372.00
2018-07-24T06:13:02.933Z,376.30
2018-07-24T06:14:02.939Z,393.30
2018-07-24T06:15:02.988Z,359.20
2018-07-24T06:16:03.015Z,379.50
2018-07-24T06:17:03.324Z,410.90
2018-07-24T06:18:03.240Z,421.30
2018-07-24T06:19:03.140Z,436.40
2018-07-24T06:20:03.194Z,436.70
2018-07-24T06:21:03.227Z,414.30
2018-07-24T06:22:03.286Z,407.50
2018-07-24T06:23:03.323Z,434.20
2018-07-24T06:24:03.384Z,432.70
2018-07-24T06:25:03.416Z,389.00
2018-07-24T06:26:03.442Z,416.40
2018-07-24T06:27:03.515Z,398.60
2018-07-24T06:28:03.533Z,432.40
2018-07-24T06:29:03.718Z,415.20
2018-07-24T06:30:03.614Z,405.10
2018-07-24T06:31:03.686Z,417.60
2018-07-24T06:32:03.705Z,394.80
2018-07-24T06:33:03.758Z,384.20
2018-07-24T06:34:03.800Z,362.80
2018-07-24T06:35:04.127Z,333.10
2018-07-24T06:36:03.868Z,354.90
2018-07-24T06:37:03.918Z,358.10
2018-07-24T06:38:03.952Z,301.00
2018-07-24T06:39:03.982Z,301.10
2018-07-24T06:40:04.052Z,301.00
2018-07-24T06:41:04.274Z,310.30
2018-07-24T06:42:04.129Z,319.40
2018-07-24T06:43:04.202Z,335.60
2018-07-24T06:44:04.190Z,357.60
2018-07-24T06:45:04.250Z,364.50
2018-07-24T06:46:04.301Z,349.70
2018-07-24T06:47:04.615Z,334.90
2018-07-24T06:48:04.380Z,314.80
2018-07-24T06:49:04.429Z,316.90
2018-07-24T06:50:04.479Z,308.30
2018-07-24T06:51:04.555Z,296.80
2018-07-24T06:52:04.609Z,316.90
2018-07-24T06:53:04.803Z,312.20
2018-07-24T06:54:04.629Z,310.30
2018-07-24T06:55:04.702Z,321.50
2018-07-24T06:56:04.754Z,316.40
2018-07-24T06:57:04.791Z,324.90
2018-07-24T06:58:05.012Z,342.10
2018-07-24T06:59:04.872Z,319.60
2018-07-24T07:00:04.896Z,323.60
2018-07-24T07:01:04.951Z,318.20
2018-07-24T07:02:05.057Z,330.70
2018-07-24T07:03:05.073Z,333.20
2018-07-24T07:04:05.213Z,305.70
2018-07-24T07:05:05.181Z,304.20
2018-07-24T07:06:05.169Z,321.80
2018-07-24T07:07:05.202Z,300.80
2018-07-24T07:08:05.245Z,291.10
2018-07-24T07:09:05.487Z,299.10
2018-07-24T07:10:05.368Z,285.10
2018-07-24T07:11:05.367Z,280.00
2018-07-24T07:12:05.407Z,281.80
2018-07-24T07:13:05.496Z,290.80
2018-07-24T07:14:05.504Z,289.20
2018-07-24T07:15:05.551Z,279.40
2018-07-24T07:16:05.587Z,297.70
2018-07-24T07:17:05.613Z,286.80
2018-07-24T07:18:05.680Z,296.20
2018-07-24T07:19:05.924Z,289.10
2018-07-24T07:20:05.985Z,281.30
2018-07-24T07:21:05.854Z,304.60
2018-07-24T07:22:05.853Z,288.30
2018-07-24T07:23:05.896Z,288.40
2018-07-24T07:24:05.928Z,288.20
2018-07-24T07:25:05.944Z,304.50
2018-07-24T07:26:06.042Z,294.50
2018-07-24T07:27:06.041Z,294.90
2018-07-24T07:28:06.149Z,285.50
2018-07-24T07:29:06.166Z,297.10
2018-07-24T07:30:06.442Z,292.20
2018-07-24T07:31:06.228Z,279.10
2018-07-24T07:32:06.292Z,295.10
2018-07-24T07:33:06.333Z,298.20
2018-07-24T07:34:06.365Z,284.40
2018-07-24T07:35:06.602Z,294.70
2018-07-24T07:36:06.425Z,293.50
2018-07-24T07:37:06.477Z,277.50
2018-07-24T07:38:06.543Z,277.90
2018-07-24T07:39:06.565Z,274.10
2018-07-24T07:40:06.605Z,287.60
2018-07-24T07:41:06.665Z,279.60
2018-07-24T07:42:06.676Z,289.80
2018-07-24T07:43:06.744Z,287.40
2018-07-24T07:44:06.763Z,274.00
2018-07-24T07:45:06.966Z,271.30
2018-07-24T07:46:06.909Z,269.60
2018-07-24T07:47:06.880Z,281.60
2018-07-24T07:48:06.945Z,279.30
2018-07-24T07:49:06.998Z,278.20
2018-07-24T07:50:07.045Z,272.00
2018-07-24T07:51:07.267Z,268.70
2018-07-24T07:52:07.127Z,268.70
2018-07-24T07:53:07.166Z,265.00
2018-07-24T07:54:07.200Z,269.30
2018-07-24T07:55:07.244Z,275.10
2018-07-24T07:56:07.334Z,257.80
2018-07-24T07:57:07.313Z,262.20
2018-07-24T07:58:07.575Z,269.40
2018-07-24T07:59:07.417Z,265.60
2018-07-24T08:00:07.431Z,261.30
2018-07-24T08:01:07.486Z,264.70
2018-07-24T08:02:07.572Z,268.50
2018-07-24T08:03:07.809Z,261.00
2018-07-24T08:04:07.637Z,262.30
2018-07-24T08:05:07.675Z,258.10
2018-07-24T08:06:07.774Z,274.90
2018-07-24T08:07:07.752Z,289.80
2018-07-24T08:08:07.805Z,264.40
2018-07-24T08:09:07.831Z,288.30
2018-07-24T08:10:07.894Z,298.90
2018-07-24T08:11:07.922Z,354.30
2018-07-24T08:12:07.969Z,358.10
2018-07-24T08:13:08.154Z,398.40
2018-07-24T08:14:08.332Z,345.80
2018-07-24T08:15:08.106Z,338.40
2018-07-24T08:16:08.146Z,356.70
2018-07-24T08:17:08.217Z,378.10
2018-07-24T08:18:08.242Z,355.60
2018-07-24T08:19:08.247Z,358.50
2018-07-24T08:20:08.520Z,368.10
2018-07-24T08:21:08.359Z,349.40
2018-07-24T08:22:08.394Z,336.10
2018-07-24T08:23:08.412Z,332.40
2018-07-24T08:24:08.465Z,326.50
2018-07-24T08:25:08.712Z,300.80
2018-07-24T08:26:08.552Z,306.70
2018-07-24T08:27:08.596Z,310.80
2018-07-24T08:28:08.709Z,299.60
2018-07-24T08:29:08.703Z,307.10
2018-07-24T08:30:08.711Z,294.40
2018-07-24T08:31:08.973Z,327.70
2018-07-24T08:32:08.860Z,317.80
2018-07-24T08:33:08.884Z,296.40
2018-07-24T08:34:08.884Z,286.60
2018-07-24T08:35:08.945Z,298.50
2018-07-24T08:36:08.959Z,289.10
2018-07-24T08:37:09.016Z,318.60
2018-07-24T08:38:09.224Z,283.40
2018-07-24T08:39:09.086Z,264.90
2018-07-24T08:40:09.160Z,315.90
2018-07-24T08:41:09.176Z,308.40
2018-07-24T08:42:09.217Z,279.70
2018-07-24T08:43:09.267Z,305.80
2018-07-24T08:44:09.288Z,343.30
2018-07-24T08:45:09.340Z,292.80
2018-07-24T08:46:09.410Z,348.40
2018-07-24T08:47:09.436Z,327.30
2018-07-24T08:48:09.664Z,300.30
2018-07-24T08:49:09.557Z,295.80
2018-07-24T08:50:09.630Z,340.60
2018-07-24T08:51:09.609Z,441.00
2018-07-24T08:52:09.664Z,327.50
2018-07-24T08:53:09.825Z,285.90
2018-07-24T08:54:10.059Z,320.30
2018-07-24T08:55:10.039Z,289.60
2018-07-24T08:56:09.859Z,301.40
2018-07-24T08:57:09.823Z,309.10
2018-07-24T08:58:09.891Z,311.70
2018-07-24T08:59:10.123Z,304.00
2018-07-24T09:00:09.959Z,283.20
2018-07-24T09:01:10.018Z,288.00
2018-07-24T09:02:10.049Z,298.30
2018-07-24T09:03:10.141Z,303.60
2018-07-24T09:04:10.191Z,297.80
2018-07-24T09:05:10.166Z,290.50
2018-07-24T09:06:10.208Z,291.70
2018-07-24T09:07:10.255Z,319.70
2018-07-24T09:08:10.340Z,297.60
2018-07-24T09:09:10.502Z,290.80
2018-07-24T09:10:10.386Z,304.40
2018-07-24T09:11:10.450Z,314.00
2018-07-24T09:12:10.468Z,305.20
2018-07-24T09:13:10.529Z,295.70
2018-07-24T09:14:10.548Z,324.70
2018-07-24T09:15:10.790Z,325.60
2018-07-24T09:16:10.650Z,334.50
2018-07-24T09:17:10.694Z,293.50
2018-07-24T09:18:10.733Z,311.50
2018-07-24T09:19:10.749Z,290.10
2018-07-24T09:20:10.829Z,300.20
2018-07-24T09:21:11.041Z,288.10
2018-07-24T09:22:10.881Z,354.80
2018-07-24T09:23:10.923Z,320.40
2018-07-24T09:24:11.021Z,310.40
2018-07-24T09:25:11.018Z,315.60
2018-07-24T09:26:11.084Z,300.70
2018-07-24T09:27:11.115Z,294.30
2018-07-24T09:28:11.148Z,283.00
2018-07-24T09:29:11.186Z,288.50
2018-07-24T09:30:11.226Z,259.30
2018-07-24T09:31:11.281Z,278.60
2018-07-24T09:32:11.384Z,302.10
2018-07-24T09:33:11.512Z,301.10
2018-07-24T09:34:11.397Z,280.40
2018-07-24T09:35:11.437Z,296.10
2018-07-24T09:36:11.525Z,365.60
2018-07-24T09:37:11.511Z,462.20
2018-07-24T09:38:11.751Z,292.10
2018-07-24T09:39:11.588Z,284.30
2018-07-24T09:40:11.623Z,294.10
2018-07-24T09:41:11.708Z,307.80
2018-07-24T09:42:11.739Z,278.60
2018-07-24T09:43:11.762Z,356.10
2018-07-24T09:44:12.017Z,322.80
2018-07-24T09:45:11.833Z,281.10
2018-07-24T09:46:11.896Z,298.20
2018-07-24T09:47:11.942Z,345.00
2018-07-24T09:48:11.961Z,336.20
2018-07-24T09:49:12.075Z,294.40
2018-07-24T09:50:12.061Z,307.20
2018-07-24T09:51:12.108Z,299.10
2018-07-24T09:52:12.142Z,328.40
2018-07-24T09:53:12.187Z,427.10
2018-07-24T09:54:12.439Z,327.80
2018-07-24T09:55:12.428Z,404.90
2018-07-24T09:56:12.331Z,300.10
2018-07-24T09:57:12.352Z,311.00
2018-07-24T09:58:12.406Z,322.90
2018-07-24T09:59:12.499Z,366.10
2018-07-24T10:00:12.479Z,302.90
2018-07-24T10:01:12.727Z,323.50
2018-07-24T10:02:12.548Z,316.10
2018-07-24T10:03:12.615Z,310.60
2018-07-24T10:04:12.653Z,315.10
2018-07-24T10:05:12.701Z,318.80
2018-07-24T10:06:12.876Z,323.30
2018-07-24T10:07:12.781Z,305.50
2018-07-24T10:08:12.833Z,460.00
2018-07-24T10:09:12.873Z,310.90
2018-07-24T10:10:12.910Z,322.00
2018-07-24T10:11:12.937Z,329.40
2018-07-24T10:12:13.217Z,459.50
2018-07-24T10:13:13.206Z,325.60
2018-07-24T10:14:13.083Z,317.90
2018-07-24T10:15:13.139Z,309.20
2018-07-24T10:16:13.148Z,329.50
2018-07-24T10:17:13.373Z,298.00
2018-07-24T10:18:13.262Z,357.10
2018-07-24T10:19:13.300Z,331.50
2018-07-24T10:20:13.355Z,328.40
2018-07-24T10:21:13.386Z,335.10
2018-07-24T10:22:13.408Z,315.50
2018-07-24T10:23:13.651Z,432.60
2018-07-24T10:24:13.508Z,354.90
2018-07-24T10:25:13.542Z,359.50
2018-07-24T10:26:13.583Z,321.00
2018-07-24T10:27:13.630Z,312.60
2018-07-24T10:28:13.667Z,550.90
2018-07-24T10:29:13.876Z,346.30
2018-07-24T10:30:13.758Z,323.50
2018-07-24T10:31:13.795Z,317.70
2018-07-24T10:32:13.875Z,341.20
2018-07-24T10:33:13.901Z,326.50
2018-07-24T10:34:13.927Z,288.10
2018-07-24T10:35:13.938Z,281.80
2018-07-24T10:36:13.994Z,286.90
2018-07-24T10:37:14.058Z,265.90
2018-07-24T10:38:14.135Z,236.40
2018-07-24T10:39:14.138Z,224.80
2018-07-24T10:40:14.376Z,233.70
2018-07-24T10:41:14.212Z,224.10
2018-07-24T10:42:14.267Z,245.30
2018-07-24T10:43:14.326Z,224.50
2018-07-24T10:44:14.356Z,216.60
2018-07-24T10:45:14.402Z,204.80
2018-07-24T10:46:14.626Z,200.20
2018-07-24T10:47:14.459Z,191.50
2018-07-24T10:48:14.513Z,189.80
2018-07-24T10:49:14.596Z,181.60
2018-07-24T10:50:14.598Z,188.30
2018-07-24T10:51:14.661Z,188.00
2018-07-24T10:52:14.840Z,182.90
2018-07-24T10:53:14.729Z,178.30
2018-07-24T10:54:14.768Z,181.50
2018-07-24T10:55:14.825Z,178.80
2018-07-24T10:56:14.872Z,177.30
2018-07-24T10:57:14.915Z,176.10
2018-07-24T10:58:15.084Z,170.80
2018-07-24T10:59:15.019Z,168.10
2018-07-24T11:00:15.090Z,163.60
2018-07-24T11:01:15.095Z,169.20
2018-07-24T11:02:15.118Z,161.70
2018-07-24T11:03:15.375Z,170.30
2018-07-24T11:04:15.211Z,174.40
2018-07-24T11:05:15.277Z,185.00
2018-07-24T11:06:15.311Z,163.60
2018-07-24T11:07:15.388Z,182.50
2018-07-24T11:08:15.406Z,166.90
2018-07-24T11:09:15.605Z,148.20
2018-07-24T11:10:15.516Z,153.60
2018-07-24T11:11:15.522Z,155.40
2018-07-24T11:12:15.544Z,136.60
2018-07-24T11:13:15.628Z,148.50
2018-07-24T11:14:15.682Z,306.00
2018-07-24T11:15:15.698Z,280.30
2018-07-24T11:16:15.731Z,156.10
2018-07-24T11:17:15.788Z,236.00
2018-07-24T11:18:15.840Z,161.20
2018-07-24T11:19:16.037Z,162.60
2018-07-24T11:20:16.109Z,160.90
2018-07-24T11:21:16.010Z,164.80
2018-07-24T11:22:16.096Z,159.50
2018-07-24T11:23:16.280Z,165.90
2018-07-24T11:24:16.075Z,198.10
2018-07-24T11:25:16.172Z,143.50
2018-07-24T11:26:16.415Z,149.50
2018-07-24T11:27:16.240Z,238.50
2018-07-24T11:28:16.323Z,196.50
2018-07-24T11:29:16.305Z,149.90
2018-07-24T11:30:16.369Z,198.70
2018-07-24T11:31:16.393Z,209.00
2018-07-24T11:32:16.576Z,158.60
2018-07-24T11:33:16.488Z,160.70
2018-07-24T11:34:16.523Z,222.30
2018-07-24T11:35:16.565Z,285.00
2018-07-24T11:36:16.689Z,176.30
2018-07-24T11:37:16.677Z,163.00
2018-07-24T11:38:16.678Z,163.60
2018-07-24T11:39:16.750Z,165.00
2018-07-24T11:40:16.786Z,174.60
2018-07-24T11:41:16.824Z,174.50
2018-07-24T11:42:17.133Z,161.00
2018-07-24T11:43:16.934Z,352.00
2018-07-24T11:44:16.956Z,195.30
2018-07-24T11:45:17.017Z,433.00
2018-07-24T11:46:17.041Z,139.10
2018-07-24T11:47:17.086Z,233.80
2018-07-24T11:48:17.386Z,159.80
2018-07-24T11:49:17.178Z,272.90
2018-07-24T11:50:17.242Z,139.90
2018-07-24T11:51:17.274Z,153.90
2018-07-24T11:52:17.292Z,157.90
2018-07-24T11:53:17.374Z,244.40
2018-07-24T11:54:17.413Z,166.40
2018-07-24T11:55:17.440Z,148.00
2018-07-24T11:56:17.510Z,160.70
2018-07-24T11:57:17.540Z,165.30
2018-07-24T11:58:17.597Z,290.20
2018-07-24T11:59:17.837Z,153.70
2018-07-24T12:00:17.663Z,210.30
2018-07-24T12:01:17.778Z,174.10
2018-07-24T12:02:17.755Z,201.00
2018-07-24T12:03:17.802Z,196.20
2018-07-24T12:04:17.851Z,358.60
2018-07-24T12:05:18.037Z,168.70
2018-07-24T12:06:17.953Z,165.70
2018-07-24T12:07:17.995Z,173.70
2018-07-24T12:08:18.031Z,187.80
2018-07-24T12:09:18.079Z,177.50
2018-07-24T12:10:18.168Z,185.30
2018-07-24T12:11:18.438Z,270.30
2018-07-24T12:12:18.192Z,462.40
2018-07-24T12:13:18.257Z,165.90
2018-07-24T12:14:18.295Z,165.90
2018-07-24T12:15:18.368Z,174.70
2018-07-24T12:16:18.391Z,178.10
2018-07-24T12:17:18.614Z,187.80
2018-07-24T12:18:18.545Z,347.30
2018-07-24T12:19:18.518Z,196.30
2018-07-24T12:20:18.563Z,184.10
2018-07-24T12:21:18.616Z,174.30
2018-07-24T12:22:18.669Z,175.10
2018-07-24T12:23:18.720Z,178.60
2018-07-24T12:24:18.887Z,180.20
2018-07-24T12:25:18.775Z,178.30
2018-07-24T12:26:18.835Z,220.10
2018-07-24T12:27:18.883Z,170.20
2018-07-24T12:28:18.947Z,208.50
2018-07-24T12:29:18.970Z,184.70
2018-07-24T12:30:19.015Z,176.00
2018-07-24T12:31:19.063Z,169.00
2018-07-24T12:32:19.119Z,182.00
2018-07-24T12:33:19.122Z,174.70